Time;durP1;ratioP1;P1;durP2;ratioP2;P2;SDS_P1;SDS_P2;PMS_P1;PMS_P2;Temp;Humidity;BMP_temperature;BMP_pressure;BME280_temperature;BME280_humidity;BME280_pressure;Samples;Min_cycle;Max_cycle;Signal;HPM_P1;HPM_P2
2023/09/22 00:00:35;;;;;;;3.10;1.20;;;16.70;47.60;;;;;;5049068;28;46896;-70
2023/09/22 00:03:01;;;;;;;6.93;1.00;;;16.70;47.50;;;;;;5048455;28;46333;-69
2023/09/22 00:05:26;;;;;;;2.20;0.70;;;16.70;47.10;;;;;;5050793;28;46459;-69
2023/09/22 00:07:52;;;;;;;1.80;0.70;;;16.70;46.80;;;;;;5050398;28;45922;-70
2023/09/22 00:10:18;;;;;;;3.63;0.90;;;16.60;46.50;;;;;;5048306;28;46477;-69
2023/09/22 00:12:45;;;;;;;1.80;0.70;;;16.60;46.50;;;;;;5047952;28;46485;-69
2023/09/22 00:15:10;;;;;;;2.37;0.87;;;16.60;46.50;;;;;;5050398;28;46527;-69
2023/09/22 00:17:36;;;;;;;2.00;0.80;;;16.60;46.30;;;;;;5050004;28;46044;-70
2023/09/22 00:20:08;;;;;;;4.23;0.90;;;16.50;46.90;;;;;;5048251;28;47298;-70
2023/09/22 00:22:33;;;;;;;1.90;0.80;;;16.40;47.70;;;;;;5046932;28;46465;-69
2023/09/22 00:24:59;;;;;;;3.30;0.90;;;16.40;47.70;;;;;;5047669;28;46450;-70
2023/09/22 00:27:24;;;;;;;1.90;0.80;;;16.40;47.40;;;;;;5048890;28;45897;-70
2023/09/22 00:29:50;;;;;;;2.20;1.00;;;16.40;47.50;;;;;;5048022;28;47137;-70
2023/09/22 00:32:16;;;;;;;2.20;0.90;;;16.40;47.20;;;;;;5049642;28;46594;-70
2023/09/22 00:34:41;;;;;;;2.20;0.83;;;16.40;47.10;;;;;;5045963;28;46446;-70
2023/09/22 00:37:07;;;;;;;5.93;0.90;;;16.40;47.10;;;;;;5052713;28;46577;-69
2023/09/22 00:39:33;;;;;;;7.17;1.10;;;16.30;47.00;;;;;;5049584;28;47359;-70
2023/09/22 00:42:01;;;;;;;3.90;1.20;;;16.30;47.10;;;;;;5051729;28;46706;-71
2023/09/22 00:44:27;;;;;;;2.20;0.93;;;16.30;46.90;;;;;;5045563;28;46345;-69
2023/09/22 00:46:52;;;;;;;2.00;0.90;;;16.30;47.00;;;;;;5048584;28;46337;-69
2023/09/22 00:49:18;;;;;;;5.93;0.97;;;16.30;46.90;;;;;;5047485;28;46454;-69
2023/09/22 00:51:44;;;;;;;3.20;1.13;;;16.40;46.90;;;;;;5047883;28;46536;-69
2023/09/22 00:54:10;;;;;;;2.33;0.93;;;16.40;46.70;;;;;;5048098;28;46684;-70
2023/09/22 00:56:36;;;;;;;6.87;1.00;;;16.40;46.60;;;;;;5051519;28;46470;-70
2023/09/22 00:59:02;;;;;;;2.17;0.90;;;16.40;46.80;;;;;;5049579;28;46477;-69
2023/09/22 01:01:27;;;;;;;2.10;0.83;;;16.40;46.80;;;;;;5049434;28;46556;-69
2023/09/22 01:03:53;;;;;;;2.20;0.80;;;16.40;46.90;;;;;;5049763;28;46506;-70
2023/09/22 01:06:19;;;;;;;3.00;1.03;;;16.40;47.00;;;;;;5050143;28;46348;-70
2023/09/22 01:08:45;;;;;;;2.77;1.00;;;16.40;47.10;;;;;;5050449;28;46270;-69
2023/09/22 01:11:11;;;;;;;3.40;1.27;;;16.40;47.10;;;;;;5050087;28;45935;-70
2023/09/22 01:13:37;;;;;;;2.70;1.40;;;16.30;47.20;;;;;;5046025;28;46356;-70
2023/09/22 01:16:03;;;;;;;2.20;0.90;;;16.30;47.60;;;;;;5048540;28;46266;-70
2023/09/22 01:18:29;;;;;;;2.00;1.00;;;16.30;47.70;;;;;;5046740;28;47241;-70
2023/09/22 01:20:58;;;;;;;3.70;1.00;;;16.30;47.90;;;;;;5054198;28;46676;-70
2023/09/22 01:23:24;;;;;;;3.33;1.00;;;16.30;48.00;;;;;;5051727;28;45810;-69
2023/09/22 01:25:50;;;;;;;2.20;1.00;;;16.20;48.10;;;;;;5053290;28;46611;-70
2023/09/22 01:28:16;;;;;;;2.63;1.10;;;16.20;48.30;;;;;;5051614;28;46965;-70
2023/09/22 01:30:42;;;;;;;3.33;1.17;;;16.20;48.30;;;;;;5049354;28;46404;-70
2023/09/22 01:33:09;;;;;;;1.97;0.93;;;16.30;48.50;;;;;;5054417;28;46547;-70
2023/09/22 01:35:35;;;;;;;2.60;1.10;;;16.20;48.70;;;;;;5050416;28;46843;-70
2023/09/22 01:38:24;;;;;;;2.20;1.00;;;16.20;48.90;;;;;;5051521;28;46442;-70
2023/09/22 01:40:50;;;;;;;2.43;0.90;;;16.10;49.30;;;;;;5051442;28;46405;-70
2023/09/22 01:43:17;;;;;;;2.13;1.00;;;16.10;49.00;;;;;;5066764;22;46644;-72
2023/09/22 01:45:43;;;;;;;3.20;1.03;;;16.10;49.40;;;;;;5049458;28;46576;-71
2023/09/22 01:48:09;;;;;;;2.43;1.03;;;16.10;49.40;;;;;;5064086;28;46461;-71
2023/09/22 01:50:40;;;;;;;2.37;1.10;;;16.10;49.40;;;;;;5033936;28;46351;-72
2023/09/22 01:53:08;;;;;;;2.73;1.20;;;16.10;49.50;;;;;;5041286;28;46389;-72
2023/09/22 01:55:35;;;;;;;3.00;1.20;;;16.10;49.40;;;;;;5049243;28;46493;-72
2023/09/22 01:58:01;;;;;;;3.00;1.27;;;16.00;49.40;;;;;;5035189;28;47983;-72
2023/09/22 02:00:26;;;;;;;3.13;1.47;;;16.00;49.30;;;;;;5032952;28;46418;-72
2023/09/22 02:02:53;;;;;;;3.50;1.17;;;16.00;49.30;;;;;;5031721;28;46655;-71
2023/09/22 02:05:19;;;;;;;3.53;1.07;;;16.00;49.30;;;;;;5040026;28;46700;-72
2023/09/22 02:07:45;;;;;;;3.87;1.20;;;16.00;49.20;;;;;;5033798;28;47420;-72
2023/09/22 02:10:15;;;;;;;2.40;1.00;;;16.00;48.90;;;;;;5039793;28;46354;-73
2023/09/22 02:12:43;;;;;;;3.17;1.30;;;16.00;48.70;;;;;;5041215;28;46490;-72
2023/09/22 02:15:10;;;;;;;2.60;1.40;;;16.00;48.80;;;;;;5037423;28;47060;-73
2023/09/22 02:17:37;;;;;;;2.30;1.10;;;16.00;48.90;;;;;;5039980;28;48166;-72
2023/09/22 02:20:18;;;;;;;2.90;1.30;;;15.90;49.20;;;;;;5035808;28;46510;-72
2023/09/22 02:22:45;;;;;;;3.97;1.03;;;15.90;49.30;;;;;;5040693;28;46451;-72
2023/09/22 02:25:15;;;;;;;2.00;1.10;;;15.80;49.30;;;;;;5039734;28;46666;-72
2023/09/22 02:27:41;;;;;;;3.17;1.37;;;15.80;49.30;;;;;;5033129;28;47429;-73
2023/09/22 02:30:08;;;;;;;2.40;1.07;;;15.80;49.30;;;;;;5039422;28;46545;-73
2023/09/22 02:32:35;;;;;;;3.90;1.50;;;15.80;49.40;;;;;;5033372;28;46460;-72
2023/09/22 02:35:00;;;;;;;3.40;1.20;;;15.70;49.40;;;;;;5032784;28;46501;-72
2023/09/22 02:37:27;;;;;;;2.77;1.40;;;15.70;49.40;;;;;;5038788;28;47843;-72
2023/09/22 02:39:53;;;;;;;2.97;1.17;;;15.70;49.40;;;;;;5039069;28;46443;-72
2023/09/22 02:42:19;;;;;;;2.70;1.20;;;15.70;49.50;;;;;;5032270;28;46586;-73
2023/09/22 02:44:44;;;;;;;2.50;1.07;;;15.60;49.50;;;;;;5033690;28;46526;-72
2023/09/22 02:47:10;;;;;;;3.97;1.23;;;15.60;49.50;;;;;;5040495;28;48177;-73
2023/09/22 02:49:36;;;;;;;3.80;1.30;;;15.60;49.50;;;;;;5031608;28;46661;-73
2023/09/22 02:52:02;;;;;;;3.10;1.00;;;15.60;49.30;;;;;;5031964;28;46725;-73
2023/09/22 02:54:28;;;;;;;2.60;1.27;;;15.60;49.30;;;;;;5040459;28;46784;-73
2023/09/22 02:56:54;;;;;;;6.23;1.13;;;15.60;49.20;;;;;;5035737;28;47847;-73
2023/09/22 02:59:19;;;;;;;2.50;1.27;;;15.60;49.20;;;;;;5034468;28;46440;-73
2023/09/22 03:01:45;;;;;;;4.53;1.40;;;15.50;49.20;;;;;;5034776;28;45828;-72
2023/09/22 03:04:11;;;;;;;3.60;1.30;;;15.50;49.30;;;;;;5042404;28;46689;-72
2023/09/22 03:06:37;;;;;;;2.20;1.17;;;15.50;49.20;;;;;;5034795;28;47959;-72
2023/09/22 03:09:06;;;;;;;3.30;1.20;;;15.50;49.20;;;;;;5051532;28;46597;-72
2023/09/22 03:11:36;;;;;;;2.70;1.30;;;15.50;49.10;;;;;;5038201;28;46410;-73
2023/09/22 03:14:03;;;;;;;4.10;1.20;;;15.50;49.30;;;;;;5027110;28;46715;-73
2023/09/22 03:16:29;;;;;;;3.13;1.10;;;15.50;49.40;;;;;;5038626;28;46722;-73
2023/09/22 03:18:58;;;;;;;3.57;1.30;;;15.50;49.50;;;;;;5032808;28;46315;-72
2023/09/22 03:21:25;;;;;;;2.50;1.10;;;15.50;49.60;;;;;;5046964;28;46464;-73
2023/09/22 03:23:53;;;;;;;2.90;1.50;;;15.40;49.40;;;;;;5039833;28;46438;-72
2023/09/22 03:26:19;;;;;;;2.73;1.40;;;15.40;49.50;;;;;;5049353;28;46581;-72
2023/09/22 03:28:46;;;;;;;3.23;1.30;;;15.40;49.90;;;;;;5047531;28;46546;-71
2023/09/22 03:31:12;;;;;;;2.80;1.33;;;15.30;50.10;;;;;;5039619;28;46450;-72
2023/09/22 03:33:40;;;;;;;2.67;1.20;;;15.30;50.20;;;;;;5033595;28;46516;-72
2023/09/22 03:36:10;;;;;;;2.40;1.20;;;15.30;50.30;;;;;;5028890;28;48583;-72
2023/09/22 03:38:37;;;;;;;3.17;1.30;;;15.30;50.00;;;;;;5038738;28;46370;-72
2023/09/22 03:41:04;;;;;;;2.63;1.23;;;15.40;50.00;;;;;;5038932;28;46519;-72
2023/09/22 03:43:30;;;;;;;2.83;1.47;;;15.40;50.00;;;;;;5048979;28;46359;-72
2023/09/22 03:45:56;;;;;;;2.73;1.33;;;15.30;50.00;;;;;;5048595;28;46967;-71
2023/09/22 03:48:22;;;;;;;2.50;1.10;;;15.30;50.10;;;;;;5039467;28;46472;-72
2023/09/22 03:50:48;;;;;;;2.73;1.20;;;15.30;50.20;;;;;;5038671;28;45892;-72
2023/09/22 03:53:14;;;;;;;2.50;1.40;;;15.30;51.60;;;;;;5036138;28;46780;-72
2023/09/22 03:55:40;;;;;;;3.20;1.43;;;15.30;50.40;;;;;;5034518;28;46389;-72
2023/09/22 03:58:06;;;;;;;5.40;1.20;;;15.30;50.40;;;;;;5031751;28;46729;-73
2023/09/22 04:00:32;;;;;;;2.67;1.50;;;15.30;50.60;;;;;;5033557;28;46497;-73
2023/09/22 04:03:03;;;;;;;2.40;1.20;;;15.30;50.80;;;;;;5034483;28;46585;-73
2023/09/22 04:05:29;;;;;;;4.53;1.23;;;15.30;50.80;;;;;;5038214;28;47342;-73
2023/09/22 04:07:57;;;;;;;3.70;1.20;;;15.30;50.90;;;;;;5035068;28;46473;-73
2023/09/22 04:10:23;;;;;;;4.20;1.43;;;15.30;50.90;;;;;;5040123;28;45882;-72
2023/09/22 04:12:50;;;;;;;3.70;1.30;;;15.20;51.00;;;;;;5034649;28;46424;-73
2023/09/22 04:15:15;;;;;;;3.50;1.33;;;15.20;51.20;;;;;;5031597;28;47186;-73
2023/09/22 04:17:42;;;;;;;2.70;1.00;;;15.20;51.40;;;;;;5038638;28;46785;-72
2023/09/22 04:20:11;;;;;;;3.10;1.33;;;15.20;51.50;;;;;;5033651;28;46882;-72
2023/09/22 04:22:38;;;;;;;3.43;1.17;;;15.30;51.60;;;;;;5039904;28;46498;-73
2023/09/22 04:25:10;;;;;;;5.73;1.40;;;15.20;51.50;;;;;;5038400;28;47888;-73
2023/09/22 04:27:42;;;;;;;3.90;1.17;;;15.20;51.60;;;;;;5031781;28;46646;-72
2023/09/22 04:30:15;;;;;;;2.90;1.10;;;15.20;51.70;;;;;;5035274;28;46698;-72
2023/09/22 04:32:45;;;;;;;2.83;1.30;;;15.10;51.90;;;;;;5039935;28;46640;-73
2023/09/22 04:35:11;;;;;;;2.60;1.20;;;15.10;52.10;;;;;;5039305;28;46526;-73
2023/09/22 04:37:37;;;;;;;3.97;1.23;;;15.00;52.60;;;;;;5031772;28;46487;-72
2023/09/22 04:40:10;;;;;;;2.50;1.20;;;15.00;53.00;;;;;;5032194;28;46525;-72
2023/09/22 04:42:36;;;;;;;3.10;1.13;;;15.00;53.30;;;;;;5046939;28;46394;-73
2023/09/22 04:45:03;;;;;;;2.47;1.23;;;14.90;53.20;;;;;;5047014;28;47852;-73
2023/09/22 04:47:29;;;;;;;2.80;1.10;;;14.90;53.20;;;;;;5033830;28;46617;-72
2023/09/22 04:49:55;;;;;;;3.70;1.40;;;14.90;53.80;;;;;;5038358;28;46343;-73
2023/09/22 04:52:20;;;;;;;2.97;1.30;;;14.90;53.80;;;;;;5048828;28;46417;-73
2023/09/22 04:54:46;;;;;;;2.63;1.10;;;14.80;53.70;;;;;;5031488;28;47849;-73
2023/09/22 04:57:12;;;;;;;3.00;1.53;;;14.80;53.80;;;;;;5051010;28;46417;-73
2023/09/22 04:59:38;;;;;;;3.50;1.40;;;14.80;53.80;;;;;;5033200;28;46503;-73
2023/09/22 05:02:05;;;;;;;3.97;1.03;;;14.90;53.70;;;;;;5039096;28;46383;-73
2023/09/22 05:04:31;;;;;;;3.53;1.43;;;14.80;53.60;;;;;;5036072;28;46450;-73
2023/09/22 05:06:57;;;;;;;6.03;1.40;;;14.80;53.80;;;;;;5032800;28;46379;-73
2023/09/22 05:09:23;;;;;;;2.30;1.23;;;14.80;53.70;;;;;;5041644;28;46935;-73
2023/09/22 05:11:49;;;;;;;5.80;1.37;;;14.80;53.90;;;;;;5051585;28;46994;-73
2023/09/22 05:14:14;;;;;;;3.73;1.60;;;14.70;54.10;;;;;;5042841;28;46483;-73
2023/09/22 05:16:42;;;;;;;3.43;1.50;;;14.70;54.20;;;;;;5042047;28;46495;-75
2023/09/22 05:19:07;;;;;;;3.20;1.13;;;14.70;54.30;;;;;;5041400;28;46532;-73
2023/09/22 05:21:33;;;;;;;2.00;0.90;;;14.70;54.50;;;;;;5032484;28;46749;-73
2023/09/22 05:23:59;;;;;;;2.30;1.10;;;14.60;54.80;;;;;;5032134;28;46848;-73
2023/09/22 05:26:25;;;;;;;4.70;1.30;;;14.60;54.90;;;;;;5042071;28;46443;-73
2023/09/22 05:28:51;;;;;;;4.83;1.40;;;14.60;54.90;;;;;;5039052;28;46542;-73
2023/09/22 05:31:18;;;;;;;4.33;1.37;;;14.60;54.80;;;;;;5041577;28;46491;-74
2023/09/22 05:33:44;;;;;;;3.63;1.10;;;14.60;54.80;;;;;;5041418;28;46578;-73
2023/09/22 05:36:11;;;;;;;3.60;1.37;;;14.60;54.90;;;;;;5035686;28;46580;-73
2023/09/22 05:38:37;;;;;;;3.30;1.53;;;14.60;55.10;;;;;;5033469;28;46488;-73
2023/09/22 05:41:04;;;;;;;3.40;1.17;;;14.60;55.50;;;;;;5042103;28;46676;-73
2023/09/22 05:43:31;;;;;;;4.87;1.30;;;14.60;55.80;;;;;;5035953;28;46698;-73
2023/09/22 05:45:57;;;;;;;6.07;1.50;;;14.60;55.80;;;;;;5034711;28;45984;-73
2023/09/22 05:48:23;;;;;;;5.87;1.63;;;14.60;55.50;;;;;;5032383;28;46441;-74
2023/09/22 05:51:00;;;;;;;4.80;1.17;;;14.60;55.40;;;;;;5039510;28;46475;-73
2023/09/22 05:53:27;;;;;;;4.70;1.20;;;14.60;55.50;;;;;;5041025;28;48929;-73
2023/09/22 05:56:08;;;;;;;4.73;1.43;;;14.70;55.10;;;;;;5036440;28;47032;-73
2023/09/22 05:58:38;;;;;;;5.67;1.23;;;14.70;55.10;;;;;;5032146;28;46426;-73
2023/09/22 06:01:08;;;;;;;5.40;1.37;;;14.70;55.00;;;;;;5041090;28;46676;-73
2023/09/22 06:03:38;;;;;;;3.77;1.20;;;14.70;54.90;;;;;;5033279;28;47215;-73
2023/09/22 06:06:15;;;;;;;5.40;1.70;;;14.70;54.80;;;;;;5039646;28;47033;-73
2023/09/22 06:08:44;;;;;;;4.70;1.40;;;14.70;54.70;;;;;;5034376;28;46672;-73
2023/09/22 06:11:10;;;;;;;4.67;1.23;;;14.70;54.60;;;;;;5032042;28;46487;-73
2023/09/22 06:13:37;;;;;;;2.87;1.20;;;14.70;54.60;;;;;;5042410;28;47960;-73
2023/09/22 06:16:04;;;;;;;4.77;1.20;;;14.70;54.60;;;;;;5047491;28;46456;-73
2023/09/22 06:18:30;;;;;;;3.47;1.20;;;14.60;54.60;;;;;;5039546;28;46545;-74
2023/09/22 06:20:58;;;;;;;3.40;1.00;;;14.60;54.70;;;;;;5040247;28;46790;-72
2023/09/22 06:23:25;;;;;;;4.77;1.50;;;14.60;54.50;;;;;;5030575;28;47174;-73
2023/09/22 06:25:54;;;;;;;2.57;1.10;;;14.60;54.50;;;;;;5040356;28;46430;-73
2023/09/22 06:28:20;;;;;;;4.50;1.30;;;14.60;54.40;;;;;;5032789;28;46652;-73
2023/09/22 06:30:50;;;;;;;2.83;1.00;;;14.60;54.30;;;;;;5034062;28;46404;-73
2023/09/22 06:33:16;;;;;;;7.60;4.33;;;14.70;54.10;;;;;;5039992;28;48035;-73
2023/09/22 06:35:46;;;;;;;3.60;1.77;;;14.70;54.00;;;;;;5039998;28;46459;-73
2023/09/22 06:38:13;;;;;;;3.60;1.60;;;14.70;54.00;;;;;;5040125;28;46609;-73
2023/09/22 06:40:39;;;;;;;2.97;1.80;;;14.70;54.00;;;;;;5038361;28;46531;-72
2023/09/22 06:43:08;;;;;;;9.60;5.77;;;14.70;53.90;;;;;;5035598;28;46549;-73
2023/09/22 06:45:37;;;;;;;16.80;11.00;;;14.80;53.70;;;;;;5035896;28;46381;-73
2023/09/22 06:48:05;;;;;;;8.93;6.13;;;14.80;53.70;;;;;;5039172;28;46363;-72
2023/09/22 06:50:37;;;;;;;5.77;3.23;;;14.80;53.60;;;;;;5049602;28;46702;-73
2023/09/22 06:53:03;;;;;;;7.60;3.83;;;14.80;53.60;;;;;;5032293;28;48974;-73
2023/09/22 06:55:32;;;;;;;5.00;2.90;;;14.90;53.50;;;;;;5048795;28;47057;-73
2023/09/22 06:57:59;;;;;;;6.87;4.70;;;14.90;53.40;;;;;;5032613;28;46415;-73
2023/09/22 07:00:28;;;;;;;6.50;5.00;;;15.00;53.40;;;;;;5040938;28;46381;-74
2023/09/22 07:02:55;;;;;;;10.60;7.00;;;15.00;53.50;;;;;;5047937;28;46670;-73
2023/09/22 07:05:21;;;;;;;7.13;4.33;;;15.10;53.30;;;;;;5039448;28;46356;-73
2023/09/22 07:07:50;;;;;;;6.33;2.50;;;15.10;53.30;;;;;;5033924;28;46419;-73
2023/09/22 07:10:16;;;;;;;12.30;6.83;;;15.10;53.20;;;;;;5040265;28;46560;-74
2023/09/22 07:12:42;;;;;;;7.93;5.07;;;15.20;53.40;;;;;;5033753;28;47954;-73
2023/09/22 07:15:09;;;;;;;18.33;11.47;;;15.20;53.30;;;;;;5034356;28;46548;-73
2023/09/22 07:17:35;;;;;;;12.30;7.37;;;15.30;53.30;;;;;;5035088;28;46461;-73
2023/09/22 07:20:04;;;;;;;5.60;2.97;;;15.30;53.20;;;;;;5040268;28;46713;-73
2023/09/22 07:22:33;;;;;;;5.20;2.87;;;15.40;53.20;;;;;;5034058;28;47214;-73
2023/09/22 07:25:03;;;;;;;17.23;9.47;;;15.50;53.00;;;;;;5048507;28;46765;-73
2023/09/22 07:27:29;;;;;;;37.70;20.50;;;15.50;52.70;;;;;;5039658;28;46440;-74
2023/09/22 07:29:55;;;;;;;11.90;5.43;;;15.50;52.90;;;;;;5029885;28;46785;-73
2023/09/22 07:32:21;;;;;;;17.83;4.67;;;15.50;52.90;;;;;;5040021;28;48291;-73
2023/09/22 07:34:48;;;;;;;11.10;5.27;;;15.60;52.80;;;;;;5038411;28;46387;-73
2023/09/22 07:37:16;;;;;;;17.23;9.37;;;15.60;52.90;;;;;;5039612;28;46509;-73
2023/09/22 07:39:42;;;;;;;18.30;8.20;;;15.60;52.90;;;;;;5036378;28;46403;-73
2023/09/22 07:42:10;;;;;;;26.23;14.37;;;15.60;53.30;;;;;;5038529;28;47881;-73
2023/09/22 07:44:36;;;;;;;17.17;9.70;;;15.60;52.90;;;;;;5038866;28;46497;-73
2023/09/22 07:47:09;;;;;;;8.60;5.50;;;15.70;52.90;;;;;;5038191;28;46382;-73
2023/09/22 07:49:40;;;;;;;6.17;5.30;;;15.70;52.70;;;;;;5040584;28;45887;-73
2023/09/22 07:52:09;;;;;;;5.60;2.30;;;15.80;52.50;;;;;;5039301;28;47447;-73
2023/09/22 07:54:35;;;;;;;3.50;1.87;;;15.90;52.00;;;;;;5034593;28;46521;-73
2023/09/22 07:57:03;;;;;;;3.73;1.90;;;16.00;51.60;;;;;;5032589;28;46426;-73
2023/09/22 07:59:32;;;;;;;4.17;2.20;;;16.00;51.60;;;;;;5032464;28;46438;-73
2023/09/22 08:02:02;;;;;;;3.00;1.57;;;16.00;51.60;;;;;;5030158;28;48084;-74
2023/09/22 08:04:29;;;;;;;4.80;1.67;;;16.00;51.60;;;;;;5032508;28;46720;-74
2023/09/22 08:06:55;;;;;;;3.17;1.30;;;16.10;51.60;;;;;;5038605;28;46723;-74
2023/09/22 08:09:21;;;;;;;4.00;1.60;;;16.10;51.30;;;;;;5032458;28;46653;-74
2023/09/22 08:11:47;;;;;;;4.43;1.37;;;16.10;51.40;;;;;;5032603;28;48687;-74
2023/09/22 08:14:13;;;;;;;2.60;1.30;;;16.10;51.50;;;;;;5033793;28;46636;-72
2023/09/22 08:16:39;;;;;;;3.40;1.30;;;16.10;51.70;;;;;;5037100;28;46439;-74
2023/09/22 08:19:10;;;;;;;2.83;1.40;;;16.10;51.70;;;;;;5032735;28;46422;-74
2023/09/22 08:21:38;;;;;;;3.97;1.70;;;16.10;51.70;;;;;;5030447;28;48374;-73
2023/09/22 08:24:04;;;;;;;3.40;1.17;;;16.00;51.90;;;;;;5038976;28;46398;-73
2023/09/22 08:26:30;;;;;;;2.87;1.47;;;16.00;52.20;;;;;;5039641;28;46856;-74
2023/09/22 08:28:57;;;;;;;3.33;1.50;;;15.90;52.20;;;;;;5037987;28;46506;-74
2023/09/22 08:31:25;;;;;;;2.60;1.40;;;16.00;52.40;;;;;;5032138;28;47891;-73
2023/09/22 08:33:51;;;;;;;4.30;1.47;;;15.90;52.60;;;;;;5034733;28;46589;-73
2023/09/22 08:36:17;;;;;;;3.13;1.57;;;15.80;52.60;;;;;;5038106;28;46860;-74
2023/09/22 08:38:43;;;;;;;2.83;1.30;;;15.80;53.00;;;;;;5034132;28;46604;-73
2023/09/22 08:41:09;;;;;;;3.50;1.43;;;15.80;53.10;;;;;;5034547;28;48748;-74
2023/09/22 08:43:35;;;;;;;3.40;1.73;;;15.80;53.00;;;;;;5037200;28;46307;-74
2023/09/22 08:46:01;;;;;;;4.10;1.50;;;15.80;53.00;;;;;;5038579;28;46624;-74
2023/09/22 08:48:28;;;;;;;3.60;1.47;;;15.80;52.80;;;;;;5031008;28;46399;-73
2023/09/22 08:50:54;;;;;;;6.83;1.47;;;15.80;52.70;;;;;;5033710;28;47805;-74
2023/09/22 08:53:20;;;;;;;2.50;1.30;;;15.80;52.50;;;;;;5039355;28;46215;-72
2023/09/22 08:55:49;;;;;;;5.80;1.90;;;15.80;52.40;;;;;;5030358;28;46774;-74
2023/09/22 08:58:17;;;;;;;5.00;1.67;;;15.90;52.30;;;;;;5033669;28;46600;-74
2023/09/22 09:00:51;;;;;;;5.63;1.93;;;16.00;52.30;;;;;;5030011;28;46705;-74
2023/09/22 09:03:20;;;;;;;4.43;2.10;;;16.00;52.20;;;;;;5047700;28;46545;-74
2023/09/22 09:05:46;;;;;;;3.27;1.40;;;16.00;52.10;;;;;;5033216;28;46382;-74
2023/09/22 09:08:13;;;;;;;2.90;1.30;;;16.00;52.10;;;;;;5037412;28;46037;-74
2023/09/22 09:10:41;;;;;;;2.83;1.50;;;15.90;52.20;;;;;;5032128;28;46931;-74
2023/09/22 09:13:07;;;;;;;3.47;1.60;;;15.90;52.30;;;;;;5036899;28;46467;-73
2023/09/22 09:15:45;;;;;;;3.70;1.33;;;15.90;52.20;;;;;;5033529;28;46485;-74
2023/09/22 09:18:12;;;;;;;3.10;1.50;;;15.80;52.10;;;;;;5031173;28;46560;-74
2023/09/22 09:20:42;;;;;;;3.87;1.40;;;15.90;52.10;;;;;;5027225;28;48056;-74
2023/09/22 09:23:19;;;;;;;3.10;1.30;;;15.90;51.90;;;;;;5037790;28;46448;-73
2023/09/22 09:25:52;;;;;;;2.73;1.20;;;15.90;51.70;;;;;;5037934;28;46413;-73
2023/09/22 09:28:18;;;;;;;3.67;1.33;;;16.00;51.50;;;;;;5037279;28;46517;-74
2023/09/22 09:30:52;;;;;;;4.27;1.10;;;16.10;51.30;;;;;;5031777;28;47830;-74
2023/09/22 09:33:22;;;;;;;3.00;1.27;;;16.20;51.10;;;;;;5032697;28;46724;-74
2023/09/22 09:35:49;;;;;;;4.13;1.50;;;16.30;51.00;;;;;;5037705;28;46442;-74
2023/09/22 09:38:15;;;;;;;3.80;1.43;;;16.30;50.90;;;;;;5028546;28;46352;-74
2023/09/22 09:40:41;;;;;;;2.87;1.23;;;16.20;50.80;;;;;;5038132;28;47868;-75
2023/09/22 09:43:16;;;;;;;3.10;1.20;;;16.20;50.90;;;;;;5033199;28;46576;-74
2023/09/22 09:46:00;;;;;;;3.40;1.60;;;16.20;50.80;;;;;;5040667;28;46732;-74
2023/09/22 09:48:27;;;;;;;4.80;1.40;;;16.10;51.10;;;;;;5039522;28;46517;-74
2023/09/22 09:51:00;;;;;;;2.43;0.90;;;16.00;51.20;;;;;;5039479;28;47180;-74
2023/09/22 09:53:31;;;;;;;2.30;1.00;;;16.10;51.20;;;;;;5040391;28;46667;-74
2023/09/22 09:56:03;;;;;;;2.83;1.33;;;16.10;50.90;;;;;;5034515;28;46687;-74
2023/09/22 09:58:34;;;;;;;3.53;1.10;;;16.20;50.70;;;;;;5040826;28;46901;-74
2023/09/22 10:01:05;;;;;;;4.40;1.20;;;16.40;50.50;;;;;;5040755;28;46668;-74
2023/09/22 10:03:33;;;;;;;2.30;1.07;;;16.40;50.10;;;;;;5048008;28;46479;-74
2023/09/22 10:06:02;;;;;;;3.50;1.07;;;16.40;50.00;;;;;;5039548;28;46508;-73
2023/09/22 10:08:28;;;;;;;2.10;1.13;;;16.30;50.00;;;;;;5033887;28;45975;-74
2023/09/22 10:11:05;;;;;;;2.40;1.00;;;16.20;50.00;;;;;;5038957;28;48687;-74
2023/09/22 10:13:34;;;;;;;3.00;1.30;;;16.00;50.50;;;;;;5050617;28;46682;-73
2023/09/22 10:16:02;;;;;;;3.03;1.40;;;15.80;51.20;;;;;;5034784;28;46730;-74
2023/09/22 10:18:44;;;;;;;2.80;1.27;;;15.60;51.50;;;;;;5049890;28;46548;-74
2023/09/22 10:21:34;;;;;;;3.60;1.10;;;15.50;51.80;;;;;;5030782;28;48110;-73
2023/09/22 10:24:23;;;;;;;3.77;1.20;;;15.30;52.30;;;;;;5032423;28;46624;-74
2023/09/22 10:27:11;;;;;;;4.73;1.17;;;15.40;52.20;;;;;;5032659;28;46294;-73
2023/09/22 10:29:52;;;;;;;2.50;1.13;;;15.40;51.50;;;;;;5052541;28;46548;-73
2023/09/22 10:32:18;;;;;;;2.90;1.13;;;15.60;50.90;;;;;;5038309;28;49037;-74
2023/09/22 10:34:55;;;;;;;3.50;1.20;;;15.70;50.40;;;;;;5036655;28;46442;-74
2023/09/22 10:37:29;;;;;;;2.20;1.00;;;15.70;50.10;;;;;;5054345;28;46372;-75
2023/09/22 10:40:19;;;;;;;3.80;1.03;;;15.70;50.00;;;;;;5041677;28;46380;-74
2023/09/22 10:42:51;;;;;;;2.90;1.23;;;15.70;49.90;;;;;;5033554;28;46294;-75
2023/09/22 10:45:25;;;;;;;2.80;1.13;;;15.60;49.70;;;;;;5050269;28;45919;-74
2023/09/22 10:47:57;;;;;;;5.23;1.57;;;15.50;49.90;;;;;;5043325;28;46670;-74
2023/09/22 10:50:26;;;;;;;3.07;1.20;;;15.30;50.20;;;;;;5041819;28;46586;-73
2023/09/22 10:52:56;;;;;;;7.23;1.10;;;15.10;50.70;;;;;;5033142;28;47939;-74
2023/09/22 10:55:31;;;;;;;2.47;1.07;;;15.00;51.10;;;;;;5032839;28;46514;-75
2023/09/22 10:57:58;;;;;;;3.53;1.40;;;14.90;51.10;;;;;;5032654;28;45886;-74
2023/09/22 11:00:24;;;;;;;3.23;0.90;;;14.90;51.10;;;;;;5039921;28;46627;-74
2023/09/22 11:02:50;;;;;;;2.03;0.97;;;14.90;51.00;;;;;;5034947;28;46974;-73
2023/09/22 11:05:16;;;;;;;2.30;1.20;;;14.90;51.10;;;;;;5036158;28;46495;-73
2023/09/22 11:07:43;;;;;;;2.83;1.30;;;14.90;50.90;;;;;;5050262;28;46541;-73
2023/09/22 11:10:17;;;;;;;7.97;1.30;;;15.00;50.70;;;;;;5041612;28;46469;-74
2023/09/22 11:12:54;;;;;;;2.47;1.17;;;15.10;50.20;;;;;;5050269;28;46513;-75
2023/09/22 11:15:20;;;;;;;3.00;1.50;;;15.20;50.10;;;;;;5039831;28;46405;-74
2023/09/22 11:17:46;;;;;;;3.57;0.93;;;15.10;50.20;;;;;;5039194;28;46662;-73
2023/09/22 11:20:26;;;;;;;3.17;1.30;;;15.00;50.50;;;;;;5042009;28;46380;-74
2023/09/22 11:22:52;;;;;;;2.47;1.10;;;14.80;51.00;;;;;;5031740;28;46633;-74
2023/09/22 11:25:22;;;;;;;3.67;1.27;;;14.80;51.10;;;;;;5038910;28;46391;-74
2023/09/22 11:27:52;;;;;;;4.37;1.60;;;14.70;51.30;;;;;;5038698;28;46296;-72
2023/09/22 11:30:21;;;;;;;3.40;0.97;;;14.70;51.30;;;;;;5039397;28;46549;-74
2023/09/22 11:32:47;;;;;;;1.90;0.87;;;14.70;51.40;;;;;;5033013;28;47877;-74
2023/09/22 11:35:39;;;;;;;2.50;0.87;;;14.70;51.50;;;;;;5033685;28;46451;-73
2023/09/22 11:38:26;;;;;;;4.47;1.30;;;14.80;51.30;;;;;;5031298;28;46343;-74
2023/09/22 11:41:01;;;;;;;2.37;0.87;;;14.70;51.10;;;;;;5030876;28;46422;-74
2023/09/22 11:43:27;;;;;;;1.83;0.83;;;14.70;51.30;;;;;;5047302;28;48108;-74
2023/09/22 11:46:10;;;;;;;2.20;1.00;;;14.60;51.60;;;;;;5032287;28;46486;-74
2023/09/22 11:48:55;;;;;;;2.07;1.00;;;14.50;51.80;;;;;;5040686;28;46472;-74
2023/09/22 11:51:20;;;;;;;2.70;0.90;;;14.50;51.80;;;;;;5028159;28;46280;-74
2023/09/22 11:53:49;;;;;;;4.23;1.20;;;14.50;51.70;;;;;;5039645;28;48585;-74
2023/09/22 11:56:16;;;;;;;7.60;1.07;;;14.50;51.40;;;;;;5039377;28;46420;-74
2023/09/22 11:58:42;;;;;;;2.63;1.10;;;14.60;51.30;;;;;;5039155;28;46594;-73
2023/09/22 12:01:09;;;;;;;5.10;1.27;;;14.70;51.00;;;;;;5038477;28;46520;-74
2023/09/22 12:03:35;;;;;;;4.30;1.40;;;14.80;50.60;;;;;;5034197;28;48032;-74
2023/09/22 12:06:02;;;;;;;2.17;0.90;;;14.90;50.50;;;;;;5052626;28;46502;-74
2023/09/22 12:08:29;;;;;;;2.90;1.10;;;14.90;50.10;;;;;;5033763;28;46422;-74
2023/09/22 12:10:55;;;;;;;2.30;1.00;;;15.00;50.00;;;;;;5050729;28;46401;-74
2023/09/22 12:13:20;;;;;;;2.93;1.20;;;15.00;50.10;;;;;;5033864;28;48185;-74
2023/09/22 12:15:46;;;;;;;2.47;1.00;;;15.00;50.10;;;;;;5037735;28;46693;-75
2023/09/22 12:18:12;;;;;;;3.87;1.10;;;15.00;50.00;;;;;;5039421;28;46495;-74
2023/09/22 12:20:38;;;;;;;3.27;1.17;;;14.90;50.10;;;;;;5030801;28;46524;-74
2023/09/22 12:23:03;;;;;;;6.70;1.00;;;14.80;50.50;;;;;;5039027;28;47929;-74
2023/09/22 12:25:29;;;;;;;2.20;0.80;;;14.70;50.90;;;;;;5031077;28;46544;-73
2023/09/22 12:27:55;;;;;;;3.40;0.90;;;14.60;51.20;;;;;;5029324;28;46410;-74
2023/09/22 12:30:20;;;;;;;1.87;0.80;;;14.50;51.50;;;;;;5037842;28;46713;-73
2023/09/22 12:32:46;;;;;;;4.17;1.00;;;14.40;51.50;;;;;;5033746;28;46242;-74
2023/09/22 12:35:12;;;;;;;1.90;0.83;;;14.30;51.80;;;;;;5038190;28;46553;-72
2023/09/22 12:37:38;;;;;;;3.13;0.90;;;14.30;51.70;;;;;;5028316;28;46354;-75
2023/09/22 12:40:04;;;;;;;2.40;0.80;;;14.40;51.50;;;;;;5036654;28;46497;-74
2023/09/22 12:42:31;;;;;;;2.23;0.90;;;14.40;51.30;;;;;;5037500;28;49300;-74
2023/09/22 12:44:58;;;;;;;2.47;0.90;;;14.40;51.20;;;;;;5033365;28;46534;-74
2023/09/22 12:47:24;;;;;;;2.33;0.83;;;14.40;51.20;;;;;;5039537;28;46155;-74
2023/09/22 12:49:50;;;;;;;1.80;0.70;;;14.30;51.20;;;;;;5033502;28;46434;-73